createdAt,value
2019-02-10T00:00:29.159Z,1003.55
2019-02-10T00:01:29.141Z,1003.54
2019-02-10T00:02:29.222Z,1003.58
2019-02-10T00:03:29.209Z,1003.56
2019-02-10T00:04:29.172Z,1003.49
2019-02-10T00:05:29.181Z,1003.50
2019-02-10T00:06:29.233Z,1003.48
2019-02-10T00:07:29.195Z,1003.44
2019-02-10T00:08:29.247Z,1003.46
2019-02-10T00:09:29.266Z,1003.48
2019-02-10T00:10:29.230Z,1003.50
2019-02-10T00:11:29.215Z,1003.53
2019-02-10T00:12:29.453Z,1003.53
2019-02-10T00:13:29.211Z,1003.52
2019-02-10T00:14:30.067Z,1003.50
2019-02-10T00:15:29.248Z,1003.49
2019-02-10T00:16:29.250Z,1003.51
2019-02-10T00:17:29.250Z,1003.50
2019-02-10T00:18:29.335Z,1003.49
2019-02-10T00:19:29.256Z,1003.52
2019-02-10T00:20:29.242Z,1003.53
2019-02-10T00:21:29.390Z,1003.50
2019-02-10T00:22:29.282Z,1003.50
2019-02-10T00:23:29.310Z,1003.51
2019-02-10T00:24:29.323Z,1003.50
2019-02-10T00:25:29.351Z,1003.48
2019-02-10T00:26:29.319Z,1003.47
2019-02-10T00:27:29.295Z,1003.50
2019-02-10T00:28:29.381Z,1003.48
2019-02-10T00:29:29.378Z,1003.51
2019-02-10T00:30:29.421Z,1003.53
2019-02-10T00:31:29.406Z,1003.58
2019-02-10T00:32:29.313Z,1003.54
2019-02-10T00:33:29.308Z,1003.57
2019-02-10T00:34:29.334Z,1003.59
2019-02-10T00:35:29.342Z,1003.63
2019-02-10T00:36:33.352Z,1003.59
2019-02-10T00:37:29.448Z,1003.63
2019-02-10T00:38:29.476Z,1003.63
2019-02-10T00:39:29.425Z,1003.53
2019-02-10T00:40:29.353Z,1003.57
2019-02-10T00:41:29.375Z,1003.57
2019-02-10T00:42:29.361Z,1003.51
2019-02-10T00:43:29.738Z,1003.53
2019-02-10T00:44:29.409Z,1003.51
2019-02-10T00:45:29.376Z,1003.51
2019-02-10T00:46:29.390Z,1003.55
2019-02-10T00:47:29.364Z,1003.51
2019-02-10T00:48:29.382Z,1003.58
2019-02-10T00:49:29.459Z,1003.56
2019-02-10T00:50:29.427Z,1003.60
2019-02-10T00:51:29.428Z,1003.57
2019-02-10T00:52:29.448Z,1003.56
2019-02-10T00:53:29.447Z,1003.56
2019-02-10T00:54:29.481Z,1003.55
2019-02-10T00:55:29.511Z,1003.51
2019-02-10T00:56:29.412Z,1003.48
2019-02-10T00:57:29.418Z,1003.52
2019-02-10T00:58:29.552Z,1003.51
2019-02-10T00:59:29.467Z,1003.51
2019-02-10T01:00:29.594Z,1003.53
2019-02-10T01:01:29.484Z,1003.52
2019-02-10T01:02:29.431Z,1003.52
2019-02-10T01:03:29.491Z,1003.53
2019-02-10T01:04:29.454Z,1003.53
2019-02-10T01:05:29.490Z,1003.54
2019-02-10T01:06:29.501Z,1003.56
2019-02-10T01:07:29.448Z,1003.56
2019-02-10T01:08:29.517Z,1003.53
2019-02-10T01:09:29.503Z,1003.50
2019-02-10T01:10:29.497Z,1003.54
2019-02-10T01:11:29.543Z,1003.49
2019-02-10T01:12:29.545Z,1003.51
2019-02-10T01:13:29.575Z,1003.49
2019-02-10T01:14:29.496Z,1003.46
2019-02-10T01:15:29.587Z,1003.47
2019-02-10T01:16:29.640Z,1003.42
2019-02-10T01:17:29.645Z,1003.36
2019-02-10T01:18:29.510Z,1003.37
2019-02-10T01:19:29.593Z,1003.32
2019-02-10T01:20:29.557Z,1003.36
2019-02-10T01:21:29.642Z,1003.37
2019-02-10T01:22:29.554Z,1003.37
2019-02-10T01:23:29.575Z,1003.37
2019-02-10T01:24:29.571Z,1003.36
2019-02-10T01:25:29.668Z,1003.32
2019-02-10T01:26:29.568Z,1003.31
2019-02-10T01:27:29.620Z,1003.29
2019-02-10T01:28:29.642Z,1003.30
2019-02-10T01:29:29.583Z,1003.29
2019-02-10T01:30:29.611Z,1003.33
2019-02-10T01:31:29.601Z,1003.31
2019-02-10T01:32:29.626Z,1003.26
2019-02-10T01:33:29.641Z,1003.34
2019-02-10T01:34:29.628Z,1003.31
2019-02-10T01:35:29.657Z,1003.35
2019-02-10T01:36:29.629Z,1003.34
2019-02-10T01:37:30.046Z,1003.33
2019-02-10T01:38:29.655Z,1003.30
2019-02-10T01:39:29.628Z,1003.31
2019-02-10T01:40:29.672Z,1003.31
2019-02-10T01:41:29.627Z,1003.31
2019-02-10T01:42:29.694Z,1003.24
2019-02-10T01:43:29.651Z,1003.29
2019-02-10T01:44:29.711Z,1003.22
2019-02-10T01:45:29.637Z,1003.27
2019-02-10T01:46:29.677Z,1003.23
2019-02-10T01:47:29.665Z,1003.24
2019-02-10T01:48:29.681Z,1003.25
2019-02-10T01:49:29.825Z,1003.24
2019-02-10T01:50:29.675Z,1003.24
2019-02-10T01:51:29.702Z,1003.22
2019-02-10T01:52:29.753Z,1003.20
2019-02-10T01:53:29.718Z,1003.18
2019-02-10T01:54:29.708Z,1003.19
2019-02-10T01:55:29.720Z,1003.14
2019-02-10T01:56:29.771Z,1003.15
2019-02-10T01:57:29.696Z,1003.18
2019-02-10T01:58:29.751Z,1003.20
2019-02-10T01:59:29.713Z,1003.19
2019-02-10T02:00:29.789Z,1003.10
2019-02-10T02:01:29.719Z,1003.17
2019-02-10T02:02:29.784Z,1003.17
2019-02-10T02:03:29.813Z,1003.11
2019-02-10T02:04:29.834Z,1003.15
2019-02-10T02:05:29.767Z,1003.15
2019-02-10T02:06:29.747Z,1003.11
2019-02-10T02:07:29.741Z,1003.12
2019-02-10T02:08:29.784Z,1003.13
2019-02-10T02:09:29.825Z,1003.13
2019-02-10T02:10:29.825Z,1003.16
2019-02-10T02:11:29.977Z,1003.09
2019-02-10T02:12:30.019Z,1003.13
2019-02-10T02:13:29.853Z,1003.11
2019-02-10T02:14:30.011Z,1003.06
2019-02-10T02:15:29.766Z,1003.08
2019-02-10T02:16:29.871Z,1003.03
2019-02-10T02:17:29.850Z,1003.01
2019-02-10T02:18:29.828Z,1003.01
2019-02-10T02:19:29.826Z,1002.98
2019-02-10T02:20:29.873Z,1002.97
2019-02-10T02:21:29.806Z,1002.99
2019-02-10T02:22:29.809Z,1002.97
2019-02-10T02:23:29.821Z,1002.98
2019-02-10T02:24:29.820Z,1002.97
2019-02-10T02:25:29.812Z,1002.96
2019-02-10T02:26:29.841Z,1002.98
2019-02-10T02:27:29.819Z,1002.95
2019-02-10T02:28:29.869Z,1002.96
2019-02-10T02:29:29.823Z,1002.95
2019-02-10T02:30:29.882Z,1002.95
2019-02-10T02:31:29.854Z,1002.98
2019-02-10T02:32:29.845Z,1002.99
2019-02-10T02:33:29.868Z,1003.00
2019-02-10T02:34:29.860Z,1002.99
2019-02-10T02:35:29.865Z,1003.01
2019-02-10T02:36:29.898Z,1002.98
2019-02-10T02:37:29.875Z,1002.94
2019-02-10T02:38:29.889Z,1002.94
2019-02-10T02:39:29.870Z,1002.92
2019-02-10T02:40:29.939Z,1002.85
2019-02-10T02:41:29.903Z,1002.87
2019-02-10T02:42:29.895Z,1002.88
2019-02-10T02:43:29.911Z,1002.82
2019-02-10T02:44:29.906Z,1002.80
2019-02-10T02:45:29.894Z,1002.79
2019-02-10T02:46:29.959Z,1002.77
2019-02-10T02:47:29.919Z,1002.76
2019-02-10T02:48:29.927Z,1002.74
2019-02-10T02:49:29.933Z,1002.78
2019-02-10T02:50:29.940Z,1002.71
2019-02-10T02:51:29.910Z,1002.71
2019-02-10T02:52:29.964Z,1002.71
2019-02-10T02:53:29.927Z,1002.69
2019-02-10T02:54:29.936Z,1002.66
2019-02-10T02:55:30.032Z,1002.68
2019-02-10T02:56:29.960Z,1002.67
2019-02-10T02:57:29.984Z,1002.67
2019-02-10T02:58:29.980Z,1002.63
2019-02-10T02:59:29.968Z,1002.63
2019-02-10T03:00:29.972Z,1002.65
2019-02-10T03:01:29.973Z,1002.62
2019-02-10T03:02:29.986Z,1002.60
2019-02-10T03:03:30.011Z,1002.56
2019-02-10T03:04:29.983Z,1002.61
2019-02-10T03:05:29.974Z,1002.52
2019-02-10T03:06:29.984Z,1002.53
2019-02-10T03:07:29.999Z,1002.52
2019-02-10T03:08:30.033Z,1002.51
2019-02-10T03:09:30.032Z,1002.47
2019-02-10T03:10:30.022Z,1002.42
2019-02-10T03:11:30.034Z,1002.43
2019-02-10T03:12:30.024Z,1002.41
2019-02-10T03:13:30.018Z,1002.43
2019-02-10T03:14:30.028Z,1002.41
2019-02-10T03:15:30.036Z,1002.38
2019-02-10T03:16:30.016Z,1002.39
2019-02-10T03:17:30.055Z,1002.39
2019-02-10T03:18:30.028Z,1002.38
2019-02-10T03:19:30.046Z,1002.38
2019-02-10T03:20:30.053Z,1002.32
2019-02-10T03:21:30.062Z,1002.31
2019-02-10T03:22:30.063Z,1002.32
2019-02-10T03:23:30.075Z,1002.32
2019-02-10T03:24:30.096Z,1002.30
2019-02-10T03:25:30.087Z,1002.30
2019-02-10T03:26:30.099Z,1002.30
2019-02-10T03:27:30.070Z,1002.30
2019-02-10T03:28:30.084Z,1002.34
2019-02-10T03:29:30.102Z,1002.30
2019-02-10T03:30:30.085Z,1002.31
2019-02-10T03:31:30.089Z,1002.30
2019-02-10T03:32:30.087Z,1002.28
2019-02-10T03:33:30.115Z,1002.23
2019-02-10T03:34:30.152Z,1002.27
2019-02-10T03:35:30.135Z,1002.25
2019-02-10T03:36:30.116Z,1002.28
2019-02-10T03:37:30.114Z,1002.20
2019-02-10T03:38:30.124Z,1002.27
2019-02-10T03:39:30.114Z,1002.26
2019-02-10T03:40:30.135Z,1002.23
2019-02-10T03:41:30.155Z,1002.18
2019-02-10T03:42:30.135Z,1002.17
2019-02-10T03:43:30.148Z,1002.15
2019-02-10T03:44:30.127Z,1002.15
2019-02-10T03:45:30.185Z,1002.13
2019-02-10T03:46:30.168Z,1002.08
2019-02-10T03:47:30.182Z,1002.09
2019-02-10T03:48:30.155Z,1002.02
2019-02-10T03:49:30.180Z,1002.04
2019-02-10T03:50:30.210Z,1002.00
2019-02-10T03:51:30.167Z,1002.03
2019-02-10T03:52:30.163Z,1002.07
2019-02-10T03:53:30.181Z,1002.05
2019-02-10T03:54:30.202Z,1002.05
2019-02-10T03:55:30.177Z,1002.03
2019-02-10T03:56:30.246Z,1002.01
2019-02-10T03:57:30.189Z,1001.99
2019-02-10T03:58:30.201Z,1002.02
2019-02-10T03:59:30.196Z,1001.97
2019-02-10T04:00:30.230Z,1001.91
2019-02-10T04:01:30.200Z,1001.89
2019-02-10T04:02:30.267Z,1001.97
2019-02-10T04:03:30.226Z,1001.94
2019-02-10T04:04:30.211Z,1001.88
2019-02-10T04:05:30.221Z,1001.87
2019-02-10T04:06:30.231Z,1001.87
2019-02-10T04:07:35.904Z,1001.86
2019-02-10T04:08:30.245Z,1001.86
2019-02-10T04:09:30.235Z,1001.81
2019-02-10T04:10:30.262Z,1001.78
2019-02-10T04:11:30.478Z,1001.79
2019-02-10T04:12:30.252Z,1001.76
2019-02-10T04:13:30.266Z,1001.78
2019-02-10T04:14:30.277Z,1001.75
2019-02-10T04:15:30.283Z,1001.76
2019-02-10T04:16:30.275Z,1001.75
2019-02-10T04:17:30.283Z,1001.74
2019-02-10T04:18:30.320Z,1001.72
2019-02-10T04:19:30.309Z,1001.71
2019-02-10T04:20:30.291Z,1001.74
2019-02-10T04:21:30.285Z,1001.72
2019-02-10T04:22:30.288Z,1001.74
2019-02-10T04:23:30.295Z,1001.68
2019-02-10T04:24:30.447Z,1001.69
2019-02-10T04:25:30.448Z,1001.68
2019-02-10T04:26:30.293Z,1001.70
2019-02-10T04:27:30.309Z,1001.66
2019-02-10T04:28:30.300Z,1001.67
2019-02-10T04:29:30.324Z,1001.59
2019-02-10T04:30:30.329Z,1001.64
2019-02-10T04:31:30.351Z,1001.60
2019-02-10T04:32:30.349Z,1001.60
2019-02-10T04:33:30.408Z,1001.64
2019-02-10T04:34:30.364Z,1001.58
2019-02-10T04:35:30.382Z,1001.55
2019-02-10T04:36:30.367Z,1001.54
2019-02-10T04:37:30.352Z,1001.55
2019-02-10T04:38:30.354Z,1001.55
2019-02-10T04:39:30.362Z,1001.48
2019-02-10T04:40:30.375Z,1001.51
2019-02-10T04:41:30.369Z,1001.54
2019-02-10T04:42:30.379Z,1001.52
2019-02-10T04:43:30.413Z,1001.55
2019-02-10T04:44:30.401Z,1001.53
2019-02-10T04:45:30.431Z,1001.54
2019-02-10T04:46:30.394Z,1001.50
2019-02-10T04:47:30.405Z,1001.53
2019-02-10T04:48:30.386Z,1001.53
2019-02-10T04:49:30.445Z,1001.50
2019-02-10T04:50:30.398Z,1001.46
2019-02-10T04:51:30.419Z,1001.48
2019-02-10T04:52:30.429Z,1001.40
2019-02-10T04:53:30.459Z,1001.42
2019-02-10T04:54:30.433Z,1001.39
2019-02-10T04:55:30.419Z,1001.38
2019-02-10T04:56:30.419Z,1001.42
2019-02-10T04:57:30.455Z,1001.37
2019-02-10T04:58:30.426Z,1001.36
2019-02-10T04:59:30.430Z,1001.38
2019-02-10T05:00:30.500Z,1001.36
2019-02-10T05:01:30.446Z,1001.33
2019-02-10T05:02:30.458Z,1001.32
2019-02-10T05:03:30.494Z,1001.25
2019-02-10T05:04:30.456Z,1001.31
2019-02-10T05:05:30.470Z,1001.27
2019-02-10T05:06:30.471Z,1001.26
2019-02-10T05:07:30.456Z,1001.28
2019-02-10T05:08:30.499Z,1001.26
2019-02-10T05:09:30.521Z,1001.23
2019-02-10T05:10:30.504Z,1001.19
2019-02-10T05:11:30.475Z,1001.20
2019-02-10T05:12:30.481Z,1001.16
2019-02-10T05:13:30.488Z,1001.14
2019-02-10T05:14:30.529Z,1001.12
2019-02-10T05:15:30.533Z,1001.14
2019-02-10T05:16:30.516Z,1001.12
2019-02-10T05:17:30.521Z,1001.10
2019-02-10T05:18:30.512Z,1001.10
2019-02-10T05:19:30.522Z,1001.10
2019-02-10T05:20:30.526Z,1001.11
2019-02-10T05:21:30.522Z,1001.06
2019-02-10T05:22:30.526Z,1001.02
2019-02-10T05:23:30.534Z,1001.07
2019-02-10T05:24:30.536Z,1001.05
2019-02-10T05:25:30.553Z,1000.99
2019-02-10T05:26:30.545Z,1000.99
2019-02-10T05:27:30.671Z,1000.98
2019-02-10T05:28:30.559Z,1000.94
2019-02-10T05:29:30.555Z,1000.91
2019-02-10T05:30:30.638Z,1000.91
2019-02-10T05:31:30.601Z,1000.90
2019-02-10T05:32:30.569Z,1000.87
2019-02-10T05:33:30.574Z,1000.85
2019-02-10T05:34:30.596Z,1000.81
2019-02-10T05:35:30.691Z,1000.79
2019-02-10T05:36:30.903Z,1000.80
2019-02-10T05:37:30.744Z,1000.79
2019-02-10T05:38:30.647Z,1000.74
2019-02-10T05:39:30.622Z,1000.69
2019-02-10T05:40:30.603Z,1000.79
2019-02-10T05:41:30.629Z,1000.73
2019-02-10T05:42:30.660Z,1000.69
2019-02-10T05:43:30.637Z,1000.66
2019-02-10T05:44:30.644Z,1000.71
2019-02-10T05:45:30.630Z,1000.67
2019-02-10T05:46:30.646Z,1000.66
2019-02-10T05:47:30.719Z,1000.61
2019-02-10T05:48:30.647Z,1000.59
2019-02-10T05:49:30.660Z,1000.57
2019-02-10T05:50:30.707Z,1000.56
2019-02-10T05:51:30.636Z,1000.53
2019-02-10T05:52:30.639Z,1000.52
2019-02-10T05:53:30.683Z,1000.50
2019-02-10T05:54:30.674Z,1000.45
2019-02-10T05:55:30.684Z,1000.46
2019-02-10T05:56:30.671Z,1000.45
2019-02-10T05:57:30.754Z,1000.44
2019-02-10T05:58:30.755Z,1000.41
2019-02-10T05:59:30.689Z,1000.37
2019-02-10T06:00:30.839Z,1000.34
2019-02-10T06:01:30.731Z,1000.32
2019-02-10T06:02:30.708Z,1000.29
2019-02-10T06:03:31.499Z,1000.28
2019-02-10T06:04:30.775Z,1000.24
2019-02-10T06:05:30.806Z,1000.24
2019-02-10T06:06:30.782Z,1000.25
2019-02-10T06:07:30.778Z,1000.25
2019-02-10T06:08:30.777Z,1000.21
2019-02-10T06:09:30.776Z,1000.19
2019-02-10T06:10:30.776Z,1000.21
2019-02-10T06:11:30.841Z,1000.19
2019-02-10T06:12:30.791Z,1000.15
2019-02-10T06:13:30.805Z,1000.16
2019-02-10T06:14:30.807Z,1000.11
2019-02-10T06:15:30.775Z,1000.06
2019-02-10T06:16:30.748Z,1000.03
2019-02-10T06:17:30.797Z,1000.02
2019-02-10T06:18:30.797Z,999.95
2019-02-10T06:19:30.878Z,999.91
2019-02-10T06:20:30.985Z,999.91
2019-02-10T06:21:30.885Z,999.90
2019-02-10T06:22:31.232Z,999.88
2019-02-10T06:23:30.838Z,999.90
2019-02-10T06:24:30.807Z,999.88
2019-02-10T06:25:30.853Z,999.88
2019-02-10T06:26:30.783Z,999.91
2019-02-10T06:27:30.794Z,999.87
2019-02-10T06:28:30.795Z,999.85
2019-02-10T06:29:30.827Z,999.88
2019-02-10T06:30:30.800Z,999.86
2019-02-10T06:31:30.845Z,999.86
2019-02-10T06:32:30.813Z,999.86
2019-02-10T06:33:30.822Z,999.89
2019-02-10T06:34:30.829Z,999.88
2019-02-10T06:35:30.905Z,999.85
2019-02-10T06:36:30.860Z,999.82
2019-02-10T06:37:30.851Z,999.80
2019-02-10T06:38:30.900Z,999.82
2019-02-10T06:39:30.872Z,999.75
2019-02-10T06:40:30.861Z,999.72
2019-02-10T06:41:30.858Z,999.67
2019-02-10T06:42:30.879Z,999.72
2019-02-10T06:43:30.877Z,999.62
2019-02-10T06:44:30.863Z,999.61
2019-02-10T06:45:30.912Z,999.67
2019-02-10T06:46:30.943Z,999.61
2019-02-10T06:47:30.896Z,999.63
2019-02-10T06:48:30.887Z,999.63
2019-02-10T06:49:30.931Z,999.59
2019-02-10T06:50:30.898Z,999.59
2019-02-10T06:51:31.426Z,999.61
2019-02-10T06:52:31.034Z,999.63
2019-02-10T06:53:31.303Z,999.67
2019-02-10T06:54:31.061Z,999.63
2019-02-10T06:55:31.039Z,999.61
2019-02-10T06:56:31.048Z,999.62
2019-02-10T06:57:30.977Z,999.59
2019-02-10T06:58:30.985Z,999.57
2019-02-10T06:59:31.081Z,999.55
2019-02-10T07:00:31.266Z,999.56
2019-02-10T07:01:30.993Z,999.61
2019-02-10T07:02:30.981Z,999.59
2019-02-10T07:03:30.973Z,999.52
2019-02-10T07:04:30.985Z,999.53
2019-02-10T07:05:30.977Z,999.49
2019-02-10T07:06:31.032Z,999.52
2019-02-10T07:07:31.044Z,999.50
2019-02-10T07:08:31.011Z,999.49
2019-02-10T07:09:30.973Z,999.47
2019-02-10T07:10:31.011Z,999.48
2019-02-10T07:11:30.992Z,999.40
2019-02-10T07:12:31.046Z,999.37
2019-02-10T07:13:31.018Z,999.33
2019-02-10T07:14:31.006Z,999.30
2019-02-10T07:15:31.012Z,999.31
2019-02-10T07:16:31.029Z,999.28
2019-02-10T07:17:31.132Z,999.27
2019-02-10T07:18:31.162Z,999.23
2019-02-10T07:19:31.043Z,999.23
2019-02-10T07:20:31.054Z,999.17
2019-02-10T07:21:31.046Z,999.18
2019-02-10T07:22:31.145Z,999.16
2019-02-10T07:23:31.142Z,999.15
2019-02-10T07:24:31.118Z,999.11
2019-02-10T07:25:31.059Z,999.16
2019-02-10T07:26:31.339Z,999.11
2019-02-10T07:27:31.068Z,999.11
2019-02-10T07:28:31.142Z,999.08
2019-02-10T07:29:31.167Z,999.06
2019-02-10T07:30:31.218Z,999.06
2019-02-10T07:31:31.135Z,998.99
2019-02-10T07:32:31.118Z,998.95
2019-02-10T07:33:31.109Z,998.93
2019-02-10T07:34:31.144Z,998.89
2019-02-10T07:35:31.159Z,998.91
2019-02-10T07:36:31.170Z,998.91
2019-02-10T07:37:31.151Z,998.91
2019-02-10T07:38:38.338Z,998.91
2019-02-10T07:39:33.069Z,998.87
2019-02-10T07:40:31.736Z,998.82
2019-02-10T07:41:33.577Z,998.85
2019-02-10T07:42:32.096Z,998.79
2019-02-10T07:43:31.161Z,998.75
2019-02-10T07:44:31.151Z,998.75
2019-02-10T07:45:31.195Z,998.76
2019-02-10T07:46:31.184Z,998.70
2019-02-10T07:47:31.178Z,998.71
2019-02-10T07:48:31.172Z,998.68
2019-02-10T07:49:31.224Z,998.63
2019-02-10T07:50:31.166Z,998.58
2019-02-10T07:51:31.212Z,998.56
2019-02-10T07:52:31.202Z,998.55
2019-02-10T07:53:31.224Z,998.47
2019-02-10T07:54:31.252Z,998.42
2019-02-10T07:55:31.303Z,998.35
2019-02-10T07:56:31.298Z,998.31
2019-02-10T07:57:31.235Z,998.35
2019-02-10T07:58:31.275Z,998.28
2019-02-10T07:59:31.293Z,998.28
2019-02-10T08:00:31.386Z,998.30
2019-02-10T08:01:31.326Z,998.29
2019-02-10T08:02:31.293Z,998.24
2019-02-10T08:03:31.245Z,998.22
2019-02-10T08:04:31.252Z,998.19
2019-02-10T08:05:31.242Z,998.18
2019-02-10T08:06:31.280Z,998.15
2019-02-10T08:07:31.277Z,998.15
2019-02-10T08:08:31.275Z,998.19
2019-02-10T08:09:31.284Z,998.15
2019-02-10T08:10:31.348Z,998.14
2019-02-10T08:11:31.311Z,998.10
2019-02-10T08:12:31.382Z,998.14
2019-02-10T08:13:31.349Z,998.09
2019-02-10T08:14:31.373Z,998.11
2019-02-10T08:15:31.288Z,998.09
2019-02-10T08:16:31.810Z,998.09
2019-02-10T08:17:31.331Z,998.06
2019-02-10T08:18:31.345Z,998.08
2019-02-10T08:19:31.341Z,998.09
2019-02-10T08:20:38.361Z,998.11
2019-02-10T08:21:31.336Z,998.10
2019-02-10T08:22:31.369Z,998.08
2019-02-10T08:23:31.334Z,998.05
2019-02-10T08:24:31.339Z,998.01
2019-02-10T08:25:31.400Z,997.98
2019-02-10T08:26:31.365Z,997.98
2019-02-10T08:27:31.389Z,997.98
2019-02-10T08:28:31.392Z,997.96
2019-02-10T08:29:31.356Z,997.89
2019-02-10T08:30:31.378Z,997.91
2019-02-10T08:31:31.386Z,997.83
2019-02-10T08:32:31.387Z,997.84
2019-02-10T08:33:31.400Z,997.83
2019-02-10T08:34:31.395Z,997.86
2019-02-10T08:35:31.674Z,997.79
2019-02-10T08:36:31.427Z,997.78
2019-02-10T08:37:31.412Z,997.76
2019-02-10T08:38:31.457Z,997.72
2019-02-10T08:39:31.428Z,997.64
2019-02-10T08:40:31.435Z,997.64
2019-02-10T08:41:31.440Z,997.62
2019-02-10T08:42:31.451Z,997.55
2019-02-10T08:43:31.890Z,997.53
2019-02-10T08:44:31.476Z,997.50
2019-02-10T08:45:31.463Z,997.45
2019-02-10T08:46:31.482Z,997.43
2019-02-10T08:47:33.747Z,997.42
2019-02-10T08:48:31.463Z,997.33
2019-02-10T08:49:31.491Z,997.35
2019-02-10T08:50:31.617Z,997.27
2019-02-10T08:51:31.486Z,997.19
2019-02-10T08:52:31.495Z,997.15
2019-02-10T08:53:31.523Z,997.10
2019-02-10T08:54:31.534Z,997.11
2019-02-10T08:55:31.533Z,997.02
2019-02-10T08:56:31.512Z,996.97
2019-02-10T08:57:31.505Z,996.96
2019-02-10T08:58:31.574Z,996.89
2019-02-10T08:59:31.648Z,996.84
2019-02-10T09:00:31.676Z,996.81
2019-02-10T09:01:31.563Z,996.78
2019-02-10T09:02:31.541Z,996.76
2019-02-10T09:03:31.561Z,996.73
2019-02-10T09:04:31.562Z,996.71
2019-02-10T09:05:31.615Z,996.74
2019-02-10T09:06:31.579Z,996.64
2019-02-10T09:07:31.604Z,996.55
2019-02-10T09:08:31.576Z,996.55
2019-02-10T09:09:31.595Z,996.47
2019-02-10T09:10:31.623Z,996.43
2019-02-10T09:11:31.602Z,996.42
2019-02-10T09:12:31.664Z,996.42
2019-02-10T09:13:31.632Z,996.39
2019-02-10T09:14:31.628Z,996.40
2019-02-10T09:15:31.644Z,996.27
2019-02-10T09:16:31.656Z,996.25
2019-02-10T09:17:31.658Z,996.22
2019-02-10T09:18:31.713Z,996.14
2019-02-10T09:19:31.646Z,996.17
2019-02-10T09:20:31.654Z,996.09
2019-02-10T09:21:31.704Z,996.05
2019-02-10T09:22:31.765Z,996.03
2019-02-10T09:23:31.730Z,995.99
2019-02-10T09:24:31.705Z,995.93
2019-02-10T09:25:31.681Z,995.86
2019-02-10T09:26:31.865Z,995.82
2019-02-10T09:27:31.675Z,995.77
2019-02-10T09:28:31.706Z,995.70
2019-02-10T09:29:31.741Z,995.69
2019-02-10T09:30:31.716Z,995.58
2019-02-10T09:31:33.167Z,995.61
2019-02-10T09:32:31.720Z,995.57
2019-02-10T09:33:31.759Z,995.56
2019-02-10T09:34:31.772Z,995.59
2019-02-10T09:35:32.004Z,995.52
2019-02-10T09:36:31.776Z,995.50
2019-02-10T09:37:31.758Z,995.48
2019-02-10T09:38:31.787Z,995.35
2019-02-10T09:39:31.757Z,995.38
2019-02-10T09:40:31.777Z,995.35
2019-02-10T09:41:31.751Z,995.29
2019-02-10T09:42:31.768Z,995.29
2019-02-10T09:43:31.773Z,995.23
2019-02-10T09:44:31.813Z,995.23
2019-02-10T09:45:31.812Z,995.17
2019-02-10T09:46:31.806Z,995.13
2019-02-10T09:47:31.786Z,995.08
2019-02-10T09:48:32.000Z,995.05
2019-02-10T09:49:31.812Z,994.94
2019-02-10T09:50:32.633Z,994.93
2019-02-10T09:51:31.884Z,994.96
2019-02-10T09:52:31.850Z,994.89
2019-02-10T09:53:31.966Z,994.86
2019-02-10T09:54:31.881Z,994.81
2019-02-10T09:55:31.817Z,994.81
2019-02-10T09:56:31.891Z,994.81
2019-02-10T09:57:31.877Z,994.75
2019-02-10T09:58:31.862Z,994.76
2019-02-10T09:59:31.837Z,994.68
2019-02-10T10:00:31.870Z,994.68
2019-02-10T10:01:31.888Z,994.63
2019-02-10T10:02:31.883Z,994.58
2019-02-10T10:03:31.903Z,994.63
2019-02-10T10:04:31.890Z,994.59
2019-02-10T10:05:31.959Z,994.58
2019-02-10T10:06:31.939Z,994.45
2019-02-10T10:07:32.022Z,994.47
2019-02-10T10:08:31.896Z,994.47
2019-02-10T10:09:31.955Z,994.40
2019-02-10T10:10:31.946Z,994.40
2019-02-10T10:11:31.927Z,994.33
2019-02-10T10:12:32.116Z,994.28
2019-02-10T10:13:31.923Z,994.25
2019-02-10T10:14:31.922Z,994.21
2019-02-10T10:15:31.938Z,994.18
2019-02-10T10:16:32.035Z,994.06
2019-02-10T10:17:32.003Z,993.96
2019-02-10T10:18:31.955Z,993.98
2019-02-10T10:19:31.994Z,993.92
2019-02-10T10:20:31.982Z,993.94
2019-02-10T10:21:31.972Z,993.95
2019-02-10T10:22:32.028Z,993.92
2019-02-10T10:23:31.979Z,993.82
2019-02-10T10:24:32.040Z,993.82
2019-02-10T10:25:32.010Z,993.78
2019-02-10T10:26:31.997Z,993.66
2019-02-10T10:27:32.024Z,993.67
2019-02-10T10:28:32.068Z,993.73
2019-02-10T10:29:32.007Z,993.65
2019-02-10T10:30:32.013Z,993.62
2019-02-10T10:31:32.342Z,993.59
2019-02-10T10:32:32.032Z,993.48
2019-02-10T10:33:32.166Z,993.41
2019-02-10T10:34:32.366Z,993.41
2019-02-10T10:35:32.082Z,993.41
2019-02-10T10:36:32.236Z,993.39
2019-02-10T10:37:32.563Z,993.36
2019-02-10T10:38:32.256Z,993.29
2019-02-10T10:39:32.181Z,993.26
2019-02-10T10:40:32.069Z,993.18
2019-02-10T10:41:32.094Z,993.14
2019-02-10T10:42:32.116Z,993.12
2019-02-10T10:43:32.078Z,993.05
2019-02-10T10:44:32.083Z,993.01
2019-02-10T10:45:32.194Z,992.92
2019-02-10T10:46:32.090Z,992.84
2019-02-10T10:47:32.157Z,992.83
2019-02-10T10:48:32.249Z,992.72
2019-02-10T10:49:32.157Z,992.67
2019-02-10T10:50:32.132Z,992.69
2019-02-10T10:51:32.178Z,992.64
2019-02-10T10:52:32.157Z,992.58
2019-02-10T10:53:32.161Z,992.53
2019-02-10T10:54:32.167Z,992.53
2019-02-10T10:55:32.149Z,992.47
2019-02-10T10:56:32.193Z,992.38
2019-02-10T10:57:32.157Z,992.41
2019-02-10T10:58:32.158Z,992.43
2019-02-10T10:59:32.173Z,992.33
2019-02-10T11:00:32.265Z,992.29
2019-02-10T11:01:32.212Z,992.30
2019-02-10T11:02:32.237Z,992.30
2019-02-10T11:03:32.219Z,992.23
2019-02-10T11:04:32.214Z,992.13
2019-02-10T11:05:32.213Z,992.12
2019-02-10T11:06:33.918Z,992.14
2019-02-10T11:07:32.194Z,992.08
2019-02-10T11:08:32.210Z,992.05
2019-02-10T11:09:35.629Z,992.08
2019-02-10T11:10:32.240Z,992.04
2019-02-10T11:11:32.309Z,992.03
2019-02-10T11:12:32.289Z,992.04
2019-02-10T11:13:32.315Z,992.00
2019-02-10T11:14:32.277Z,991.94
2019-02-10T11:15:32.315Z,991.92
2019-02-10T11:16:32.251Z,991.92
2019-02-10T11:17:32.721Z,991.87
2019-02-10T11:18:32.269Z,991.86
2019-02-10T11:19:32.550Z,991.84
2019-02-10T11:20:32.274Z,991.80
2019-02-10T11:21:32.314Z,991.72
2019-02-10T11:22:32.362Z,991.70
2019-02-10T11:23:32.275Z,991.64
2019-02-10T11:24:32.308Z,991.55
2019-02-10T11:25:32.301Z,991.55
2019-02-10T11:26:32.299Z,991.60
2019-02-10T11:27:32.319Z,991.65
2019-02-10T11:28:32.345Z,991.67
2019-02-10T11:29:32.343Z,991.65
2019-02-10T11:30:32.343Z,991.63
2019-02-10T11:31:32.352Z,991.53
2019-02-10T11:32:32.346Z,991.46
2019-02-10T11:33:32.395Z,991.41
2019-02-10T11:34:32.371Z,991.41
2019-02-10T11:35:32.370Z,991.36
2019-02-10T11:36:32.354Z,991.36
2019-02-10T11:37:32.366Z,991.29
2019-02-10T11:38:32.418Z,991.21
2019-02-10T11:39:32.368Z,991.24
2019-02-10T11:40:32.390Z,991.28
2019-02-10T11:41:32.409Z,991.28
2019-02-10T11:42:32.460Z,991.34
2019-02-10T11:43:32.448Z,991.32
2019-02-10T11:44:32.439Z,991.27
2019-02-10T11:45:32.430Z,991.02
2019-02-10T11:46:32.436Z,990.83
2019-02-10T11:47:32.451Z,990.81
2019-02-10T11:48:32.440Z,990.88
2019-02-10T11:49:32.451Z,990.94
2019-02-10T11:50:32.474Z,990.95
2019-02-10T11:51:33.177Z,991.03
2019-02-10T11:52:32.468Z,991.05
2019-02-10T11:53:32.478Z,990.93
2019-02-10T11:54:32.642Z,990.83
2019-02-10T11:55:32.786Z,990.74
2019-02-10T11:56:32.513Z,990.63
2019-02-10T11:57:32.456Z,990.57
2019-02-10T11:58:32.490Z,990.53
2019-02-10T11:59:32.728Z,990.56
2019-02-10T12:00:33.373Z,990.56
2019-02-10T12:01:32.929Z,990.57
2019-02-10T12:02:37.895Z,990.56
2019-02-10T12:03:32.747Z,990.63
2019-02-10T12:04:32.522Z,990.61
2019-02-10T12:05:32.568Z,990.48
2019-02-10T12:06:32.580Z,990.57
2019-02-10T12:07:32.710Z,990.48
2019-02-10T12:08:35.610Z,990.46
2019-02-10T12:09:32.549Z,990.57
2019-02-10T12:10:32.643Z,990.45
2019-02-10T12:11:32.660Z,990.37
2019-02-10T12:12:32.611Z,990.40
2019-02-10T12:13:32.639Z,990.44
2019-02-10T12:14:32.566Z,990.39
2019-02-10T12:15:32.748Z,990.37
2019-02-10T12:16:32.681Z,990.37